sensor_id;sensor_type;location;lat;lon;timestamp;pressure;altitude;pressure_sealevel;temperature;humidity
74913;BME280;63474;55.624;37.304;2022-09-27T00:00:24;98534.47;;;21.81;36.35
74913;BME280;63474;55.624;37.304;2022-09-27T00:02:49;98545.00;;;21.89;36.38
74913;BME280;63474;55.624;37.304;2022-09-27T00:05:15;98541.13;;;21.92;36.70
74913;BME280;63474;55.624;37.304;2022-09-27T00:10:06;98522.91;;;21.95;36.30
74913;BME280;63474;55.624;37.304;2022-09-27T00:12:31;98528.72;;;22.06;36.14
74913;BME280;63474;55.624;37.304;2022-09-27T00:14:57;98528.25;;;22.17;36.75
74913;BME280;63474;55.624;37.304;2022-09-27T00:17:28;98529.94;;;22.24;35.77
74913;BME280;63474;55.624;37.304;2022-09-27T00:19:53;98535.91;;;22.26;35.31
74913;BME280;63474;55.624;37.304;2022-09-27T00:22:22;98523.38;;;22.20;35.50
74913;BME280;63474;55.624;37.304;2022-09-27T00:24:48;98529.22;;;22.09;35.15
74913;BME280;63474;55.624;37.304;2022-09-27T00:29:39;98536.19;;;21.89;35.70
74913;BME280;63474;55.624;37.304;2022-09-27T00:32:06;98524.25;;;21.85;35.87
74913;BME280;63474;55.624;37.304;2022-09-27T00:34:35;98527.38;;;21.88;35.88
74913;BME280;63474;55.624;37.304;2022-09-27T00:37:02;98531.47;;;21.91;35.89
74913;BME280;63474;55.624;37.304;2022-09-27T00:39:28;98532.22;;;21.85;35.50
74913;BME280;63474;55.624;37.304;2022-09-27T00:41:54;98520.69;;;21.77;36.07
74913;BME280;63474;55.624;37.304;2022-09-27T00:49:34;98536.00;;;21.69;35.70
74913;BME280;63474;55.624;37.304;2022-09-27T00:52:14;98544.34;;;21.66;35.94
74913;BME280;63474;55.624;37.304;2022-09-27T00:54:43;98543.09;;;21.62;36.37
74913;BME280;63474;55.624;37.304;2022-09-27T00:59:50;98543.97;;;21.47;36.30
74913;BME280;63474;55.624;37.304;2022-09-27T01:04:45;98549.97;;;21.35;36.38
74913;BME280;63474;55.624;37.304;2022-09-27T01:09:36;98553.09;;;21.09;36.04
74913;BME280;63474;55.624;37.304;2022-09-27T01:31:57;98548.25;;;20.68;37.08
74913;BME280;63474;55.624;37.304;2022-09-27T01:37:43;98541.44;;;20.65;36.90
74913;BME280;63474;55.624;37.304;2022-09-27T01:42:48;98538.13;;;20.63;37.50
74913;BME280;63474;55.624;37.304;2022-09-27T01:47:55;98546.75;;;20.51;37.06
74913;BME280;63474;55.624;37.304;2022-09-27T01:50:28;98532.19;;;20.47;37.45
74913;BME280;63474;55.624;37.304;2022-09-27T01:53:01;98544.28;;;20.49;37.99
74913;BME280;63474;55.624;37.304;2022-09-27T01:55:34;98543.75;;;20.54;37.68
74913;BME280;63474;55.624;37.304;2022-09-27T01:58:26;98538.22;;;20.55;37.46
74913;BME280;63474;55.624;37.304;2022-09-27T02:04:14;98544.38;;;20.56;37.03
74913;BME280;63474;55.624;37.304;2022-09-27T02:06:45;98545.47;;;20.47;36.98
74913;BME280;63474;55.624;37.304;2022-09-27T02:09:13;98547.66;;;20.58;36.97
74913;BME280;63474;55.624;37.304;2022-09-27T02:11:46;98546.13;;;20.49;37.98
74913;BME280;63474;55.624;37.304;2022-09-27T02:16:52;98535.47;;;20.63;37.82
74913;BME280;63474;55.624;37.304;2022-09-27T02:19:27;98533.72;;;20.71;37.74
74913;BME280;63474;55.624;37.304;2022-09-27T02:24:26;98530.72;;;20.74;37.17
74913;BME280;63474;55.624;37.304;2022-09-27T02:27:11;98536.78;;;20.82;37.45
74913;BME280;63474;55.624;37.304;2022-09-27T02:29:44;98531.88;;;20.86;37.97
74913;BME280;63474;55.624;37.304;2022-09-27T02:34:40;98526.94;;;20.83;37.33
74913;BME280;63474;55.624;37.304;2022-09-27T02:37:08;98531.81;;;20.94;37.19
74913;BME280;63474;55.624;37.304;2022-09-27T02:39:34;98538.41;;;20.98;36.75
74913;BME280;63474;55.624;37.304;2022-09-27T02:42:03;98536.47;;;20.92;36.66
74913;BME280;63474;55.624;37.304;2022-09-27T02:44:29;98541.63;;;20.79;36.21
74913;BME280;63474;55.624;37.304;2022-09-27T02:54:40;98539.34;;;20.76;36.82
74913;BME280;63474;55.624;37.304;2022-09-27T03:02:52;98544.66;;;20.76;36.80
74913;BME280;63474;55.624;37.304;2022-09-27T03:05:25;98545.69;;;20.75;37.03
74913;BME280;63474;55.624;37.304;2022-09-27T03:07:51;98534.75;;;20.70;36.56
74913;BME280;63474;55.624;37.304;2022-09-27T03:10:22;98539.44;;;20.67;36.38
74913;BME280;63474;55.624;37.304;2022-09-27T03:12:48;98527.50;;;20.49;36.17
74913;BME280;63474;55.624;37.304;2022-09-27T03:17:41;98535.66;;;20.24;37.09
74913;BME280;63474;55.624;37.304;2022-09-27T03:20:06;98541.69;;;20.18;37.61
74913;BME280;63474;55.624;37.304;2022-09-27T03:22:32;98541.69;;;20.18;37.38
74913;BME280;63474;55.624;37.304;2022-09-27T03:24:58;98547.94;;;20.25;37.65
74913;BME280;63474;55.624;37.304;2022-09-27T03:27:25;98547.41;;;20.30;37.51
74913;BME280;63474;55.624;37.304;2022-09-27T03:29:52;98543.56;;;20.32;37.39
74913;BME280;63474;55.624;37.304;2022-09-27T03:32:17;98544.22;;;20.34;37.79
74913;BME280;63474;55.624;37.304;2022-09-27T03:34:43;98541.28;;;20.44;37.64
74913;BME280;63474;55.624;37.304;2022-09-27T03:37:09;98547.22;;;20.54;36.95
74913;BME280;63474;55.624;37.304;2022-09-27T03:39:36;98555.84;;;20.56;36.68
74913;BME280;63474;55.624;37.304;2022-09-27T03:42:02;98542.63;;;20.48;36.59
74913;BME280;63474;55.624;37.304;2022-09-27T03:44:29;98539.72;;;20.35;36.81
74913;BME280;63474;55.624;37.304;2022-09-27T03:49:20;98540.25;;;20.30;37.29
74913;BME280;63474;55.624;37.304;2022-09-27T03:51:46;98550.56;;;20.33;37.39
74913;BME280;63474;55.624;37.304;2022-09-27T03:54:15;98556.81;;;20.40;37.02
74913;BME280;63474;55.624;37.304;2022-09-27T03:56:41;98546.97;;;20.26;36.47
74913;BME280;63474;55.624;37.304;2022-09-27T03:59:07;98555.09;;;20.25;36.36
74913;BME280;63474;55.624;37.304;2022-09-27T04:01:34;98557.50;;;20.20;36.89
74913;BME280;63474;55.624;37.304;2022-09-27T04:04:00;98556.66;;;20.19;36.92
74913;BME280;63474;55.624;37.304;2022-09-27T04:06:33;98558.59;;;20.25;37.03
74913;BME280;63474;55.624;37.304;2022-09-27T04:09:01;98561.72;;;20.29;37.41
74913;BME280;63474;55.624;37.304;2022-09-27T04:11:28;98565.13;;;20.37;37.05
74913;BME280;63474;55.624;37.304;2022-09-27T04:13:58;98568.09;;;20.42;36.52
74913;BME280;63474;55.624;37.304;2022-09-27T04:16:24;98565.59;;;20.41;36.78
74913;BME280;63474;55.624;37.304;2022-09-27T04:18:50;98569.41;;;20.47;36.74
74913;BME280;63474;55.624;37.304;2022-09-27T04:21:17;98567.00;;;20.52;36.63
74913;BME280;63474;55.624;37.304;2022-09-27T04:23:43;98573.97;;;20.53;36.15
74913;BME280;63474;55.624;37.304;2022-09-27T04:26:10;98569.88;;;20.50;36.35
74913;BME280;63474;55.624;37.304;2022-09-27T04:28:35;98578.59;;;20.59;36.56
74913;BME280;63474;55.624;37.304;2022-09-27T04:31:03;98577.31;;;20.70;36.76
74913;BME280;63474;55.624;37.304;2022-09-27T04:33:30;98575.25;;;20.80;36.24
74913;BME280;63474;55.624;37.304;2022-09-27T04:38:24;98571.66;;;20.87;36.29
74913;BME280;63474;55.624;37.304;2022-09-27T04:40:50;98575.78;;;20.90;35.81
74913;BME280;63474;55.624;37.304;2022-09-27T04:43:16;98577.91;;;20.94;35.71
74913;BME280;63474;55.624;37.304;2022-09-27T04:45:45;98579.00;;;21.00;35.49
74913;BME280;63474;55.624;37.304;2022-09-27T04:48:11;98575.31;;;21.16;35.55
74913;BME280;63474;55.624;37.304;2022-09-27T04:50:37;98573.09;;;21.05;35.45
74913;BME280;63474;55.624;37.304;2022-09-27T04:53:03;98575.94;;;21.03;34.92
74913;BME280;63474;55.624;37.304;2022-09-27T04:55:31;98573.75;;;20.92;34.85
74913;BME280;63474;55.624;37.304;2022-09-27T05:00:23;98576.41;;;20.77;35.56
74913;BME280;63474;55.624;37.304;2022-09-27T05:02:52;98579.78;;;20.86;36.26
74913;BME280;63474;55.624;37.304;2022-09-27T05:05:17;98582.84;;;20.98;36.45
74913;BME280;63474;55.624;37.304;2022-09-27T05:07:44;98578.16;;;21.14;36.43
74913;BME280;63474;55.624;37.304;2022-09-27T05:10:09;98575.94;;;21.33;35.20
74913;BME280;63474;55.624;37.304;2022-09-27T05:12:36;98576.84;;;21.40;35.21
74913;BME280;63474;55.624;37.304;2022-09-27T05:15:03;98573.00;;;21.42;35.25
74913;BME280;63474;55.624;37.304;2022-09-27T05:17:29;98565.63;;;21.44;34.51
74913;BME280;63474;55.624;37.304;2022-09-27T05:19:59;98564.53;;;21.54;34.52
74913;BME280;63474;55.624;37.304;2022-09-27T05:22:25;98566.59;;;21.58;35.27
74913;BME280;63474;55.624;37.304;2022-09-27T05:24:58;98540.16;;;21.57;34.95
74913;BME280;63474;55.624;37.304;2022-09-27T05:27:23;98567.28;;;21.82;34.66
74913;BME280;63474;55.624;37.304;2022-09-27T05:29:49;98571.59;;;21.83;33.97
74913;BME280;63474;55.624;37.304;2022-09-27T05:32:15;98560.47;;;21.79;33.80
74913;BME280;63474;55.624;37.304;2022-09-27T05:34:40;98558.00;;;21.77;34.10
74913;BME280;63474;55.624;37.304;2022-09-27T05:37:06;98557.81;;;21.79;34.25
74913;BME280;63474;55.624;37.304;2022-09-27T05:44:23;98558.88;;;21.85;34.29
74913;BME280;63474;55.624;37.304;2022-09-27T05:46:50;98563.09;;;21.94;34.58
74913;BME280;63474;55.624;37.304;2022-09-27T05:49:18;98561.50;;;21.99;34.60
74913;BME280;63474;55.624;37.304;2022-09-27T05:51:44;98558.66;;;22.01;33.98
74913;BME280;63474;55.624;37.304;2022-09-27T05:54:09;98566.06;;;22.06;34.01
74913;BME280;63474;55.624;37.304;2022-09-27T05:56:36;98552.72;;;22.06;34.09
74913;BME280;63474;55.624;37.304;2022-09-27T06:01:28;98549.03;;;22.07;34.55
74913;BME280;63474;55.624;37.304;2022-09-27T06:06:18;98543.72;;;22.07;34.65
74913;BME280;63474;55.624;37.304;2022-09-27T06:08:47;98549.03;;;22.07;35.07
74913;BME280;63474;55.624;37.304;2022-09-27T06:11:12;98542.34;;;22.11;35.02
74913;BME280;63474;55.624;37.304;2022-09-27T06:13:39;98549.13;;;22.13;34.83
74913;BME280;63474;55.624;37.304;2022-09-27T06:16:09;98548.50;;;22.11;34.10
74913;BME280;63474;55.624;37.304;2022-09-27T06:18:36;98551.91;;;22.05;34.40
74913;BME280;63474;55.624;37.304;2022-09-27T06:21:03;98553.56;;;22.06;34.65
74913;BME280;63474;55.624;37.304;2022-09-27T06:23:30;98555.59;;;22.04;34.49
74913;BME280;63474;55.624;37.304;2022-09-27T06:28:21;98554.38;;;22.07;34.65
74913;BME280;63474;55.624;37.304;2022-09-27T06:30:48;98563.13;;;22.15;34.79
74913;BME280;63474;55.624;37.304;2022-09-27T06:33:18;98564.81;;;22.23;34.58
74913;BME280;63474;55.624;37.304;2022-09-27T06:35:45;98550.25;;;22.25;34.43
74913;BME280;63474;55.624;37.304;2022-09-27T06:38:13;98562.63;;;22.33;34.55
74913;BME280;63474;55.624;37.304;2022-09-27T06:40:41;98562.09;;;22.44;34.64
74913;BME280;63474;55.624;37.304;2022-09-27T06:43:08;98557.06;;;22.56;34.67
74913;BME280;63474;55.624;37.304;2022-09-27T06:45:35;98557.53;;;22.66;34.72
74913;BME280;63474;55.624;37.304;2022-09-27T06:48:03;98556.19;;;22.77;34.78
74913;BME280;63474;55.624;37.304;2022-09-27T06:50:34;98545.81;;;22.89;35.33
74913;BME280;63474;55.624;37.304;2022-09-27T06:55:27;98551.03;;;23.10;34.70
74913;BME280;63474;55.624;37.304;2022-09-27T06:57:54;98552.31;;;23.14;34.30
74913;BME280;63474;55.624;37.304;2022-09-27T07:00:20;98555.16;;;23.13;34.03
74913;BME280;63474;55.624;37.304;2022-09-27T07:02:46;98543.63;;;23.05;34.13
74913;BME280;63474;55.624;37.304;2022-09-27T07:05:11;98549.41;;;23.09;34.24
74913;BME280;63474;55.624;37.304;2022-09-27T07:07:38;98537.88;;;23.02;33.70
74913;BME280;63474;55.624;37.304;2022-09-27T07:10:04;98540.09;;;22.98;34.22
74913;BME280;63474;55.624;37.304;2022-09-27T07:12:34;98534.31;;;22.88;34.45
74913;BME280;63474;55.624;37.304;2022-09-27T07:15:05;98550.53;;;22.93;34.25
74913;BME280;63474;55.624;37.304;2022-09-27T07:17:32;98549.31;;;22.89;35.19
74913;BME280;63474;55.624;37.304;2022-09-27T07:22:25;98531.84;;;22.93;35.67
74913;BME280;63474;55.624;37.304;2022-09-27T07:24:51;98544.03;;;23.02;35.16
74913;BME280;63474;55.624;37.304;2022-09-27T07:27:17;98538.44;;;22.97;35.20
74913;BME280;63474;55.624;37.304;2022-09-27T07:29:43;98536.47;;;22.78;35.48
74913;BME280;63474;55.624;37.304;2022-09-27T07:32:08;98538.47;;;22.69;36.14
74913;BME280;63474;55.624;37.304;2022-09-27T07:34:35;98541.75;;;22.71;36.26
74913;BME280;63474;55.624;37.304;2022-09-27T07:37:03;98541.19;;;22.76;36.60
74913;BME280;63474;55.624;37.304;2022-09-27T07:39:31;98544.25;;;22.79;36.35
74913;BME280;63474;55.624;37.304;2022-09-27T07:44:22;98540.81;;;22.85;37.00
74913;BME280;63474;55.624;37.304;2022-09-27T07:46:49;98549.50;;;22.88;36.91
74913;BME280;63474;55.624;37.304;2022-09-27T07:49:15;98542.88;;;22.83;37.27
74913;BME280;63474;55.624;37.304;2022-09-27T07:51:42;98542.50;;;22.87;35.91
74913;BME280;63474;55.624;37.304;2022-09-27T07:54:08;98544.34;;;22.86;35.71
74913;BME280;63474;55.624;37.304;2022-09-27T07:56:37;98543.59;;;22.99;35.70
74913;BME280;63474;55.624;37.304;2022-09-27T07:59:04;98547.50;;;22.96;35.45
74913;BME280;63474;55.624;37.304;2022-09-27T08:01:29;98543.59;;;22.99;35.33
74913;BME280;63474;55.624;37.304;2022-09-27T08:06:20;98549.19;;;23.10;35.01
74913;BME280;63474;55.624;37.304;2022-09-27T08:08:46;98540.53;;;23.02;37.05
74913;BME280;63474;55.624;37.304;2022-09-27T08:11:16;98541.75;;;23.06;37.04
74913;BME280;63474;55.624;37.304;2022-09-27T08:13:44;98544.69;;;23.11;37.41
74913;BME280;63474;55.624;37.304;2022-09-27T08:16:12;98541.16;;;23.04;35.82
74913;BME280;63474;55.624;37.304;2022-09-27T08:18:39;98546.03;;;22.94;36.97
74913;BME280;63474;55.624;37.304;2022-09-27T08:21:05;98548.06;;;22.92;37.13
74913;BME280;63474;55.624;37.304;2022-09-27T08:23:31;98542.88;;;22.83;36.07
74913;BME280;63474;55.624;37.304;2022-09-27T08:25:57;98528.81;;;22.68;36.12
74913;BME280;63474;55.624;37.304;2022-09-27T08:28:24;98535.41;;;22.72;37.05
74913;BME280;63474;55.624;37.304;2022-09-27T08:30:51;98531.53;;;22.75;36.53
74913;BME280;63474;55.624;37.304;2022-09-27T08:33:20;98532.97;;;22.77;36.51
74913;BME280;63474;55.624;37.304;2022-09-27T08:35:48;98534.50;;;22.93;36.64
74913;BME280;63474;55.624;37.304;2022-09-27T08:38:16;98541.81;;;23.19;37.56
74913;BME280;63474;55.624;37.304;2022-09-27T08:40:51;98537.38;;;23.39;36.45
74913;BME280;63474;55.624;37.304;2022-09-27T08:48:39;98535.47;;;23.88;36.25
74913;BME280;63474;55.624;37.304;2022-09-27T08:51:05;98528.47;;;23.93;35.38
74913;BME280;63474;55.624;37.304;2022-09-27T08:54:15;98531.38;;;24.05;35.26
74913;BME280;63474;55.624;37.304;2022-09-27T08:56:44;98531.16;;;23.93;35.17
74913;BME280;63474;55.624;37.304;2022-09-27T08:59:15;98532.59;;;23.76;34.47
74913;BME280;63474;55.624;37.304;2022-09-27T09:01:42;98527.75;;;23.52;34.39
74913;BME280;63474;55.624;37.304;2022-09-27T09:04:09;98528.78;;;23.44;35.56
74913;BME280;63474;55.624;37.304;2022-09-27T09:21:00;98524.69;;;22.66;35.98
74913;BME280;63474;55.624;37.304;2022-09-27T09:26:43;98517.19;;;22.48;35.51
74913;BME280;63474;55.624;37.304;2022-09-27T09:34:38;98511.66;;;22.49;36.91
74913;BME280;63474;55.624;37.304;2022-09-27T09:37:18;98509.41;;;22.53;36.09
74913;BME280;63474;55.624;37.304;2022-09-27T09:42:56;98508.59;;;22.24;35.64
74913;BME280;63474;55.624;37.304;2022-09-27T09:45:32;98514.75;;;22.25;36.19
74913;BME280;63474;55.624;37.304;2022-09-27T09:50:47;98505.56;;;22.27;36.02
74913;BME280;63474;55.624;37.304;2022-09-27T09:56:13;98512.13;;;22.32;36.06
74913;BME280;63474;55.624;37.304;2022-09-27T09:58:43;98504.53;;;22.28;36.21
74913;BME280;63474;55.624;37.304;2022-09-27T10:01:25;98505.78;;;22.33;36.14
74913;BME280;63474;55.624;37.304;2022-09-27T10:03:55;98501.66;;;22.30;36.14
74913;BME280;63474;55.624;37.304;2022-09-27T10:06:22;98494.69;;;22.29;35.76
74913;BME280;63474;55.624;37.304;2022-09-27T10:08:50;98503.06;;;22.26;35.67
74913;BME280;63474;55.624;37.304;2022-09-27T10:11:30;98496.53;;;22.28;35.58
74913;BME280;63474;55.624;37.304;2022-09-27T10:13:58;98476.88;;;22.08;35.29
74913;BME280;63474;55.624;37.304;2022-09-27T10:16:25;98502.97;;;22.13;35.74
74913;BME280;63474;55.624;37.304;2022-09-27T10:18:54;98501.00;;;22.21;35.80
74913;BME280;63474;55.624;37.304;2022-09-27T10:21:28;98495.88;;;22.26;35.56
74913;BME280;63474;55.624;37.304;2022-09-27T10:26:19;98485.56;;;22.45;36.29
74913;BME280;63474;55.624;37.304;2022-09-27T10:28:45;98490.06;;;22.44;35.05
74913;BME280;63474;55.624;37.304;2022-09-27T10:31:21;98496.84;;;22.47;35.25
74913;BME280;63474;55.624;37.304;2022-09-27T10:34:02;98494.75;;;22.36;34.95
74913;BME280;63474;55.624;37.304;2022-09-27T10:36:31;98488.63;;;22.14;35.25
74913;BME280;63474;55.624;37.304;2022-09-27T10:38:59;98486.06;;;22.06;35.89
74913;BME280;63474;55.624;37.304;2022-09-27T10:41:34;98484.31;;;22.13;35.92
74913;BME280;63474;55.624;37.304;2022-09-27T10:44:19;98481.06;;;22.17;35.72
74913;BME280;63474;55.624;37.304;2022-09-27T10:46:47;98480.38;;;22.09;35.30
74913;BME280;63474;55.624;37.304;2022-09-27T10:51:45;98480.50;;;22.00;36.09
74913;BME280;63474;55.624;37.304;2022-09-27T10:54:32;98473.88;;;22.18;35.29
74913;BME280;63474;55.624;37.304;2022-09-27T10:59:24;98479.69;;;22.07;35.95
74913;BME280;63474;55.624;37.304;2022-09-27T11:01:58;98479.09;;;22.04;35.48
74913;BME280;63474;55.624;37.304;2022-09-27T11:04:29;98482.72;;;21.97;35.94
74913;BME280;63474;55.624;37.304;2022-09-27T11:09:22;98482.88;;;21.67;35.15
74913;BME280;63474;55.624;37.304;2022-09-27T11:12:07;98471.97;;;21.62;35.39
74913;BME280;63474;55.624;37.304;2022-09-27T11:14:33;98477.38;;;21.47;35.69
74913;BME280;63474;55.624;37.304;2022-09-27T11:19:57;98470.13;;;21.63;36.02
74913;BME280;63474;55.624;37.304;2022-09-27T11:30:20;98455.78;;;21.64;35.35
74913;BME280;63474;55.624;37.304;2022-09-27T11:35:56;98461.94;;;21.64;35.50
74913;BME280;63474;55.624;37.304;2022-09-27T11:38:31;98457.94;;;21.54;35.34
74913;BME280;63474;55.624;37.304;2022-09-27T11:46:27;98447.16;;;21.40;35.51
74913;BME280;63474;55.624;37.304;2022-09-27T11:51:59;98450.13;;;21.31;36.44
74913;BME280;63474;55.624;37.304;2022-09-27T11:57:51;98444.06;;;21.22;36.94
74913;BME280;63474;55.624;37.304;2022-09-27T12:00:15;98442.59;;;21.34;38.45
74913;BME280;63474;55.624;37.304;2022-09-27T12:09:13;98430.34;;;21.61;39.82
74913;BME280;63474;55.624;37.304;2022-09-27T12:11:52;98440.16;;;21.82;41.16
74913;BME280;63474;55.624;37.304;2022-09-27T12:17:16;98435.41;;;22.06;45.03
74913;BME280;63474;55.624;37.304;2022-09-27T12:19:52;98429.06;;;22.35;44.29
74913;BME280;63474;55.624;37.304;2022-09-27T12:22:23;98426.13;;;22.64;49.83
74913;BME280;63474;55.624;37.304;2022-09-27T12:24:51;98418.94;;;22.65;52.19
74913;BME280;63474;55.624;37.304;2022-09-27T12:27:45;98427.59;;;22.73;48.03
74913;BME280;63474;55.624;37.304;2022-09-27T12:30:12;98426.66;;;22.46;51.98
74913;BME280;63474;55.624;37.304;2022-09-27T12:33:22;98422.38;;;22.52;50.44
74913;BME280;63474;55.624;37.304;2022-09-27T12:35:58;98423.31;;;22.38;53.03
74913;BME280;63474;55.624;37.304;2022-09-27T12:38:59;98421.13;;;22.48;51.94
74913;BME280;63474;55.624;37.304;2022-09-27T12:41:32;98415.38;;;22.51;54.81
74913;BME280;63474;55.624;37.304;2022-09-27T12:51:37;98414.16;;;22.95;47.69
74913;BME280;63474;55.624;37.304;2022-09-27T13:11:08;98421.47;;;22.38;44.48
74913;BME280;63474;55.624;37.304;2022-09-27T13:13:47;98415.00;;;22.19;45.64
74913;BME280;63474;55.624;37.304;2022-09-27T13:16:12;98409.50;;;21.99;46.26
74913;BME280;63474;55.624;37.304;2022-09-27T13:27:12;98402.19;;;22.08;44.65
74913;BME280;63474;55.624;37.304;2022-09-27T13:29:49;98397.56;;;22.17;42.99
74913;BME280;63474;55.624;37.304;2022-09-27T13:34:53;98400.06;;;22.25;42.49
74913;BME280;63474;55.624;37.304;2022-09-27T13:42:55;98392.44;;;22.15;41.50
74913;BME280;63474;55.624;37.304;2022-09-27T13:45:33;98393.63;;;22.13;40.82
74913;BME280;63474;55.624;37.304;2022-09-27T13:48:21;98398.25;;;22.04;43.39
74913;BME280;63474;55.624;37.304;2022-09-27T13:50:51;98393.28;;;21.94;43.76
74913;BME280;63474;55.624;37.304;2022-09-27T13:53:35;98394.72;;;21.97;43.27
74913;BME280;63474;55.624;37.304;2022-09-27T14:01:49;98390.59;;;22.16;42.31
74913;BME280;63474;55.624;37.304;2022-09-27T14:06:36;98395.94;;;22.64;41.14
74913;BME280;63474;55.624;37.304;2022-09-27T14:15:54;98404.41;;;21.48;33.09
74913;BME280;63474;55.624;37.304;2022-09-27T14:18:22;98400.66;;;18.12;39.45
74913;BME280;63474;55.624;37.304;2022-09-27T14:20:50;98395.22;;;16.06;43.98
74913;BME280;63474;55.624;37.304;2022-09-27T14:23:20;98409.09;;;14.76;48.28
74913;BME280;63474;55.624;37.304;2022-09-27T14:25:47;98410.16;;;13.81;50.82
74913;BME280;63474;55.624;37.304;2022-09-27T14:28:26;98401.53;;;13.32;51.33
74913;BME280;63474;55.624;37.304;2022-09-27T14:31:15;98397.63;;;12.97;52.58
74913;BME280;63474;55.624;37.304;2022-09-27T14:33:41;98403.78;;;12.58;53.92
74913;BME280;63474;55.624;37.304;2022-09-27T14:36:13;98404.56;;;12.48;54.27
74913;BME280;63474;55.624;37.304;2022-09-27T14:38:42;98397.63;;;12.38;55.32
74913;BME280;63474;55.624;37.304;2022-09-27T14:41:08;98400.44;;;12.15;55.51
74913;BME280;63474;55.624;37.304;2022-09-27T14:43:34;98404.00;;;12.05;56.50
74913;BME280;63474;55.624;37.304;2022-09-27T14:46:05;98401.91;;;11.98;56.50
74913;BME280;63474;55.624;37.304;2022-09-27T14:48:36;98395.50;;;11.91;57.60
74913;BME280;63474;55.624;37.304;2022-09-27T14:53:34;98380.72;;;11.90;56.96
74913;BME280;63474;55.624;37.304;2022-09-27T14:56:01;98384.94;;;11.82;57.96
74913;BME280;63474;55.624;37.304;2022-09-27T14:58:28;98393.94;;;11.68;58.38
74913;BME280;63474;55.624;37.304;2022-09-27T15:00:53;98394.53;;;11.71;58.37
74913;BME280;63474;55.624;37.304;2022-09-27T15:03:26;98388.63;;;11.79;57.61
74913;BME280;63474;55.624;37.304;2022-09-27T15:05:52;98383.22;;;11.71;58.65
74913;BME280;63474;55.624;37.304;2022-09-27T15:08:19;98381.94;;;11.65;58.33
74913;BME280;63474;55.624;37.304;2022-09-27T15:10:47;98378.69;;;11.52;58.70
74913;BME280;63474;55.624;37.304;2022-09-27T15:13:14;98380.47;;;11.52;58.97
74913;BME280;63474;55.624;37.304;2022-09-27T15:15:40;98380.22;;;11.55;59.03
74913;BME280;63474;55.624;37.304;2022-09-27T15:21:04;98378.41;;;11.97;58.17
74913;BME280;63474;55.624;37.304;2022-09-27T15:23:38;98371.13;;;12.10;57.73
74913;BME280;63474;55.624;37.304;2022-09-27T15:26:15;98373.06;;;12.08;56.84
74913;BME280;63474;55.624;37.304;2022-09-27T15:28:46;98358.13;;;11.78;57.44
74913;BME280;63474;55.624;37.304;2022-09-27T15:31:14;98356.44;;;11.46;58.46
74913;BME280;63474;55.624;37.304;2022-09-27T15:33:41;98365.06;;;11.37;58.89
74913;BME280;63878;55.624;37.304;2022-09-27T15:36:09;98353.13;;;11.24;59.59
74913;BME280;63878;55.624;37.304;2022-09-27T15:38:44;98351.44;;;11.23;59.17
74913;BME280;63878;55.624;37.304;2022-09-27T15:43:57;98350.44;;;11.03;60.21
74913;BME280;63878;55.624;37.304;2022-09-27T15:46:41;98351.41;;;11.02;60.31
74913;BME280;63878;55.624;37.304;2022-09-27T15:49:19;98352.84;;;11.06;60.23
74913;BME280;63878;55.624;37.304;2022-09-27T15:51:47;98355.13;;;10.99;60.81
74913;BME280;63878;55.624;37.304;2022-09-27T15:54:17;98348.28;;;10.87;61.75
74913;BME280;63878;55.624;37.304;2022-09-27T15:56:42;98348.28;;;10.76;61.78
74913;BME280;63878;55.624;37.304;2022-09-27T15:59:22;98349.53;;;10.72;62.19
74913;BME280;63878;55.624;37.304;2022-09-27T16:01:48;98341.22;;;11.19;61.30
74913;BME280;63878;55.624;37.304;2022-09-27T16:04:14;98330.31;;;11.03;61.21
74913;BME280;63878;55.624;37.304;2022-09-27T16:28:05;98324.44;;;12.04;57.27
74913;BME280;63878;55.624;37.304;2022-09-27T16:30:32;98315.78;;;11.83;58.06
74913;BME280;63878;55.624;37.304;2022-09-27T16:32:58;98311.31;;;11.73;58.10
74913;BME280;63878;55.624;37.304;2022-09-27T16:35:25;98304.22;;;11.64;59.19
74913;BME280;63878;55.624;37.304;2022-09-27T16:37:50;98311.94;;;11.35;59.21
74913;BME280;63878;55.624;37.304;2022-09-27T16:40:16;98313.97;;;11.53;59.20
74913;BME280;63878;55.624;37.304;2022-09-27T16:42:43;98312.34;;;12.42;58.40
74913;BME280;63878;55.624;37.304;2022-09-27T16:45:09;98308.50;;;12.55;56.18
74913;BME280;63878;55.624;37.304;2022-09-27T16:47:35;98306.88;;;12.64;55.25
74913;BME280;63878;55.624;37.304;2022-09-27T16:50:02;98314.28;;;11.59;58.33
74913;BME280;63878;55.624;37.304;2022-09-27T16:52:29;98304.66;;;11.18;59.81
74913;BME280;63878;55.624;37.304;2022-09-27T16:54:55;98308.44;;;11.04;60.04
74913;BME280;63878;55.624;37.304;2022-09-27T16:57:20;98304.25;;;11.02;61.13
74913;BME280;63878;55.624;37.304;2022-09-27T16:59:46;98305.66;;;10.85;60.78
74913;BME280;63878;55.624;37.304;2022-09-27T17:02:12;98293.97;;;10.89;60.81
74913;BME280;63878;55.624;37.304;2022-09-27T17:04:38;98286.94;;;10.89;61.33
74913;BME280;63878;55.624;37.304;2022-09-27T17:07:04;98288.34;;;10.94;60.72
74913;BME280;63878;55.624;37.304;2022-09-27T17:09:30;98281.94;;;10.66;61.89
74913;BME280;63878;55.624;37.304;2022-09-27T17:11:55;98286.81;;;10.70;61.39
74913;BME280;63878;55.624;37.304;2022-09-27T17:14:22;98284.63;;;10.75;61.49
74913;BME280;63878;55.624;37.304;2022-09-27T17:16:48;98285.94;;;10.70;61.56
74913;BME280;63878;55.624;37.304;2022-09-27T17:19:15;98284.13;;;10.81;62.60
74913;BME280;63878;55.624;37.304;2022-09-27T17:21:41;98289.34;;;10.60;61.58
74913;BME280;63878;55.624;37.304;2022-09-27T17:24:08;98288.25;;;10.63;61.70
74913;BME280;63878;55.624;37.304;2022-09-27T17:26:34;98285.72;;;10.73;61.51
74913;BME280;63878;55.624;37.304;2022-09-27T17:29:00;98269.81;;;10.64;62.63